sensor_id;sensor_type;location;lat;lon;timestamp;pressure;altitude;pressure_sealevel;temperature;humidity
32761;BME280;19126;47.472;7.850;2023-04-10T00:02:00;97078.19;;;2.27;100.00
32761;BME280;19126;47.472;7.850;2023-04-10T00:04:27;97071.28;;;2.39;100.00
32761;BME280;19126;47.472;7.850;2023-04-10T00:06:55;97062.56;;;2.40;100.00
32761;BME280;19126;47.472;7.850;2023-04-10T00:09:24;97060.56;;;2.43;100.00
32761;BME280;19126;47.472;7.850;2023-04-10T00:11:52;97063.38;;;2.40;100.00
32761;BME280;19126;47.472;7.850;2023-04-10T00:14:21;97060.09;;;2.38;100.00
32761;BME280;19126;47.472;7.850;2023-04-10T00:16:49;97061.63;;;2.41;100.00
32761;BME280;19126;47.472;7.850;2023-04-10T00:19:17;97063.84;;;2.34;100.00
32761;BME280;19126;47.472;7.850;2023-04-10T00:21:45;97071.59;;;2.34;100.00
32761;BME280;19126;47.472;7.850;2023-04-10T00:24:13;97063.47;;;2.27;100.00
32761;BME280;19126;47.472;7.850;2023-04-10T00:26:42;97069.47;;;2.28;100.00
32761;BME280;19126;47.472;7.850;2023-04-10T00:29:09;97064.50;;;2.25;100.00
32761;BME280;19126;47.472;7.850;2023-04-10T00:31:36;97070.03;;;2.20;100.00
32761;BME280;19126;47.472;7.850;2023-04-10T00:34:05;97063.72;;;2.11;100.00
32761;BME280;19126;47.472;7.850;2023-04-10T00:36:34;97063.34;;;2.04;100.00
32761;BME280;19126;47.472;7.850;2023-04-10T00:39:01;97056.41;;;2.05;100.00
32761;BME280;19126;47.472;7.850;2023-04-10T00:41:28;97051.34;;;2.03;100.00
32761;BME280;19126;47.472;7.850;2023-04-10T00:43:57;97051.34;;;2.03;100.00
32761;BME280;19126;47.472;7.850;2023-04-10T00:46:25;97050.63;;;2.01;100.00
32761;BME280;19126;47.472;7.850;2023-04-10T00:48:54;97058.72;;;1.97;100.00
32761;BME280;19126;47.472;7.850;2023-04-10T00:51:22;97052.81;;;1.95;100.00
32761;BME280;19126;47.472;7.850;2023-04-10T00:53:51;97059.28;;;1.89;100.00
32761;BME280;19126;47.472;7.850;2023-04-10T00:56:20;97055.97;;;1.87;100.00
32761;BME280;19126;47.472;7.850;2023-04-10T00:58:49;97048.28;;;1.85;100.00
32761;BME280;19126;47.472;7.850;2023-04-10T01:01:18;97043.53;;;1.79;100.00
32761;BME280;19126;47.472;7.850;2023-04-10T01:03:46;97050.22;;;1.70;100.00
32761;BME280;19126;47.472;7.850;2023-04-10T01:06:24;97053.31;;;1.63;100.00
32761;BME280;19126;47.472;7.850;2023-04-10T01:08:59;97050.94;;;1.59;100.00
32761;BME280;19126;47.472;7.850;2023-04-10T01:11:44;97046.69;;;1.58;100.00
32761;BME280;19126;47.472;7.850;2023-04-10T01:14:22;97044.97;;;1.59;100.00
32761;BME280;19126;47.472;7.850;2023-04-10T01:17:00;97046.28;;;1.65;100.00
32761;BME280;19126;47.472;7.850;2023-04-10T01:19:57;97046.19;;;1.53;100.00
32761;BME280;19126;47.472;7.850;2023-04-10T01:22:37;97046.09;;;1.55;100.00
32761;BME280;19126;47.472;7.850;2023-04-10T01:25:33;97053.75;;;1.56;100.00
32761;BME280;19126;47.472;7.850;2023-04-10T01:31:02;97047.78;;;1.43;100.00
32761;BME280;19126;47.472;7.850;2023-04-10T01:33:41;97049.72;;;1.52;100.00
32761;BME280;19126;47.472;7.850;2023-04-10T01:36:11;97053.16;;;1.53;100.00
32761;BME280;19126;47.472;7.850;2023-04-10T01:38:41;97041.53;;;1.58;100.00
32761;BME280;19126;47.472;7.850;2023-04-10T01:41:09;97044.13;;;1.58;100.00
32761;BME280;19126;47.472;7.850;2023-04-10T01:43:39;97053.88;;;1.55;100.00
32761;BME280;19126;47.472;7.850;2023-04-10T01:46:10;97034.91;;;1.54;100.00
32761;BME280;19126;47.472;7.850;2023-04-10T01:48:38;97043.59;;;1.53;100.00
32761;BME280;19126;47.472;7.850;2023-04-10T01:51:08;97031.50;;;1.54;100.00
32761;BME280;19126;47.472;7.850;2023-04-10T01:53:38;97040.81;;;1.56;100.00
32761;BME280;19126;47.472;7.850;2023-04-10T01:56:08;97039.88;;;1.57;100.00
32761;BME280;19126;47.472;7.850;2023-04-10T01:58:36;97044.84;;;1.60;100.00
32761;BME280;19126;47.472;7.850;2023-04-10T02:01:03;97042.38;;;1.59;100.00
32761;BME280;19126;47.472;7.850;2023-04-10T02:03:32;97051.88;;;1.58;100.00
32761;BME280;19126;47.472;7.850;2023-04-10T02:06:11;97052.66;;;1.48;100.00
32761;BME280;19126;47.472;7.850;2023-04-10T02:08:47;97051.09;;;1.45;100.00
32761;BME280;19126;47.472;7.850;2023-04-10T02:11:24;97046.75;;;1.45;100.00
32761;BME280;19126;47.472;7.850;2023-04-10T02:13:53;97049.63;;;1.41;100.00
32761;BME280;19126;47.472;7.850;2023-04-10T02:16:23;97054.00;;;1.40;100.00
32761;BME280;19126;47.472;7.850;2023-04-10T02:18:52;97048.41;;;1.34;100.00
32761;BME280;19126;47.472;7.850;2023-04-10T02:21:20;97052.78;;;1.33;100.00
32761;BME280;19126;47.472;7.850;2023-04-10T02:23:47;97061.13;;;1.37;100.00
32761;BME280;19126;47.472;7.850;2023-04-10T02:26:15;97062.69;;;1.39;100.00
32761;BME280;19126;47.472;7.850;2023-04-10T02:28:42;97060.13;;;1.39;100.00
32761;BME280;19126;47.472;7.850;2023-04-10T02:31:09;97054.31;;;1.49;100.00
32761;BME280;19126;47.472;7.850;2023-04-10T02:33:37;97059.34;;;1.50;100.00
32761;BME280;19126;47.472;7.850;2023-04-10T02:36:07;97053.38;;;1.50;100.00
32761;BME280;19126;47.472;7.850;2023-04-10T02:38:34;97047.47;;;1.48;100.00
32761;BME280;19126;47.472;7.850;2023-04-10T02:41:02;97048.28;;;1.48;100.00
32761;BME280;19126;47.472;7.850;2023-04-10T02:43:29;97053.16;;;1.53;100.00
32761;BME280;19126;47.472;7.850;2023-04-10T02:45:56;97049.19;;;1.60;100.00
32761;BME280;19126;47.472;7.850;2023-04-10T02:48:24;97057.69;;;1.62;100.00
32761;BME280;19126;47.472;7.850;2023-04-10T02:50:56;97052.72;;;1.59;100.00
32761;BME280;19126;47.472;7.850;2023-04-10T02:53:25;97053.94;;;1.66;100.00
32761;BME280;19126;47.472;7.850;2023-04-10T02:55:52;97044.53;;;1.65;100.00
32761;BME280;19126;47.472;7.850;2023-04-10T02:58:20;97047.34;;;1.62;100.00
32761;BME280;19126;47.472;7.850;2023-04-10T03:00:48;97040.06;;;1.67;100.00
32761;BME280;19126;47.472;7.850;2023-04-10T03:03:18;97043.59;;;1.66;100.00
32761;BME280;19126;47.472;7.850;2023-04-10T03:05:46;97043.47;;;1.68;100.00
32761;BME280;19126;47.472;7.850;2023-04-10T03:08:14;97047.63;;;1.70;100.00
32761;BME280;19126;47.472;7.850;2023-04-10T03:10:44;97040.78;;;1.69;100.00
32761;BME280;19126;47.472;7.850;2023-04-10T03:13:13;97042.44;;;1.70;100.00
32761;BME280;19126;47.472;7.850;2023-04-10T03:15:41;97023.88;;;1.77;100.00
32761;BME280;19126;47.472;7.850;2023-04-10T03:18:08;97025.31;;;1.81;100.00
32761;BME280;19126;47.472;7.850;2023-04-10T03:20:36;97022.50;;;1.84;100.00
32761;BME280;19126;47.472;7.850;2023-04-10T03:23:04;97025.19;;;1.82;100.00
32761;BME280;19126;47.472;7.850;2023-04-10T03:25:33;97021.66;;;1.83;100.00
32761;BME280;19126;47.472;7.850;2023-04-10T03:28:03;97018.41;;;1.93;100.00
32761;BME280;19126;47.472;7.850;2023-04-10T03:30:30;97010.13;;;1.87;100.00
32761;BME280;19126;47.472;7.850;2023-04-10T03:33:00;97011.19;;;1.85;100.00
32761;BME280;19126;47.472;7.850;2023-04-10T03:35:27;97006.53;;;1.90;100.00
32761;BME280;19126;47.472;7.850;2023-04-10T03:37:54;97012.84;;;1.86;100.00
32761;BME280;19126;47.472;7.850;2023-04-10T03:40:22;97010.56;;;1.81;100.00
32761;BME280;19126;47.472;7.850;2023-04-10T03:42:49;97010.81;;;1.78;100.00
32761;BME280;19126;47.472;7.850;2023-04-10T03:45:18;97006.69;;;1.75;100.00
32761;BME280;19126;47.472;7.850;2023-04-10T03:47:46;97002.44;;;1.74;100.00
32761;BME280;19126;47.472;7.850;2023-04-10T03:50:13;96999.72;;;1.76;100.00
32761;BME280;19126;47.472;7.850;2023-04-10T03:52:40;97004.41;;;1.71;100.00
32761;BME280;19126;47.472;7.850;2023-04-10T03:55:08;97004.19;;;1.74;100.00
32761;BME280;19126;47.472;7.850;2023-04-10T03:57:36;96996.63;;;1.71;100.00
32761;BME280;19126;47.472;7.850;2023-04-10T04:00:04;97001.88;;;1.82;100.00
32761;BME280;19126;47.472;7.850;2023-04-10T04:02:33;97005.75;;;1.77;100.00
32761;BME280;19126;47.472;7.850;2023-04-10T04:05:00;97003.16;;;1.77;100.00
32761;BME280;19126;47.472;7.850;2023-04-10T04:07:28;97008.94;;;1.80;100.00
32761;BME280;19126;47.472;7.850;2023-04-10T04:09:55;97004.31;;;1.72;100.00
32761;BME280;19126;47.472;7.850;2023-04-10T04:12:23;97005.84;;;1.75;100.00
32761;BME280;19126;47.472;7.850;2023-04-10T04:14:50;97016.59;;;1.82;100.00
32761;BME280;19126;47.472;7.850;2023-04-10T04:17:17;97017.84;;;1.76;100.00
32761;BME280;19126;47.472;7.850;2023-04-10T04:19:46;97017.06;;;1.63;100.00
32761;BME280;19126;47.472;7.850;2023-04-10T04:22:14;97017.63;;;1.55;100.00
32761;BME280;19126;47.472;7.850;2023-04-10T04:24:41;97016.41;;;1.48;100.00
32761;BME280;19126;47.472;7.850;2023-04-10T04:27:10;97014.03;;;1.44;100.00
32761;BME280;19126;47.472;7.850;2023-04-10T04:29:37;97015.06;;;1.42;100.00
32761;BME280;19126;47.472;7.850;2023-04-10T04:32:05;97010.81;;;1.41;100.00
32761;BME280;19126;47.472;7.850;2023-04-10T04:34:33;97011.81;;;1.51;100.00
32761;BME280;19126;47.472;7.850;2023-04-10T04:37:02;97018.66;;;1.52;100.00
32761;BME280;19126;47.472;7.850;2023-04-10T04:39:30;97015.84;;;1.55;100.00
32761;BME280;19126;47.472;7.850;2023-04-10T04:41:57;97023.81;;;1.65;100.00
32761;BME280;19126;47.472;7.850;2023-04-10T04:44:24;97017.97;;;1.74;100.00
32761;BME280;19126;47.472;7.850;2023-04-10T04:46:52;97021.72;;;1.70;100.00
32761;BME280;19126;47.472;7.850;2023-04-10T04:49:19;97018.00;;;1.61;100.00
32761;BME280;19126;47.472;7.850;2023-04-10T04:51:46;97020.22;;;1.55;100.00
32761;BME280;19126;47.472;7.850;2023-04-10T04:54:15;97023.41;;;1.58;100.00
32761;BME280;19126;47.472;7.850;2023-04-10T04:56:42;97024.47;;;1.56;100.00
32761;BME280;19126;47.472;7.850;2023-04-10T04:59:10;97029.50;;;1.57;100.00
32761;BME280;19126;47.472;7.850;2023-04-10T05:01:37;97020.09;;;1.56;100.00
32761;BME280;19126;47.472;7.850;2023-04-10T05:04:05;97021.66;;;1.46;100.00
32761;BME280;19126;47.472;7.850;2023-04-10T05:06:32;97023.81;;;1.52;100.00
32761;BME280;19126;47.472;7.850;2023-04-10T05:08:59;97028.13;;;1.40;100.00
32761;BME280;19126;47.472;7.850;2023-04-10T05:11:28;97021.06;;;1.42;100.00
32761;BME280;19126;47.472;7.850;2023-04-10T05:13:55;97018.34;;;1.44;100.00
32761;BME280;19126;47.472;7.850;2023-04-10T05:16:23;97020.59;;;1.61;100.00
32761;BME280;19126;47.472;7.850;2023-04-10T05:18:50;97016.16;;;1.88;100.00
32761;BME280;19126;47.472;7.850;2023-04-10T05:21:17;97016.03;;;2.14;100.00
32761;BME280;19126;47.472;7.850;2023-04-10T05:23:45;97022.09;;;2.26;100.00
32761;BME280;19126;47.472;7.850;2023-04-10T05:26:12;97018.94;;;2.33;100.00
32761;BME280;19126;47.472;7.850;2023-04-10T05:28:44;97018.69;;;2.25;100.00
32761;BME280;19126;47.472;7.850;2023-04-10T05:31:11;97021.59;;;2.20;100.00
32761;BME280;19126;47.472;7.850;2023-04-10T05:33:40;97013.06;;;2.31;100.00
32761;BME280;19126;47.472;7.850;2023-04-10T05:36:09;97019.66;;;2.36;100.00
32761;BME280;19126;47.472;7.850;2023-04-10T05:38:37;97020.69;;;2.33;100.00
32761;BME280;19126;47.472;7.850;2023-04-10T05:41:04;97016.00;;;2.38;100.00
32761;BME280;19126;47.472;7.850;2023-04-10T05:43:32;97023.56;;;2.41;100.00
32761;BME280;19126;47.472;7.850;2023-04-10T05:46:00;97023.31;;;2.44;100.00
32761;BME280;19126;47.472;7.850;2023-04-10T05:48:28;97029.03;;;2.61;100.00
32761;BME280;19126;47.472;7.850;2023-04-10T05:50:55;97020.13;;;2.76;100.00
32761;BME280;19126;47.472;7.850;2023-04-10T05:53:28;97022.63;;;3.01;100.00
32761;BME280;19126;47.472;7.850;2023-04-10T05:55:57;97023.72;;;3.10;100.00
32761;BME280;19126;47.472;7.850;2023-04-10T05:58:25;97025.94;;;3.14;100.00
32761;BME280;19126;47.472;7.850;2023-04-10T06:00:54;97024.66;;;3.20;100.00
32761;BME280;19126;47.472;7.850;2023-04-10T06:03:24;97022.28;;;3.28;100.00
32761;BME280;19126;47.472;7.850;2023-04-10T06:05:56;97032.91;;;3.48;100.00
32761;BME280;19126;47.472;7.850;2023-04-10T06:08:24;97036.22;;;3.50;100.00
32761;BME280;19126;47.472;7.850;2023-04-10T06:10:52;97040.06;;;3.78;100.00
32761;BME280;19126;47.472;7.850;2023-04-10T06:13:19;97035.75;;;4.12;100.00
32761;BME280;19126;47.472;7.850;2023-04-10T06:15:46;97039.22;;;4.33;100.00
32761;BME280;19126;47.472;7.850;2023-04-10T06:18:13;97045.50;;;4.73;100.00
32761;BME280;19126;47.472;7.850;2023-04-10T06:20:42;97045.47;;;5.16;100.00
32761;BME280;19126;47.472;7.850;2023-04-10T06:23:10;97043.09;;;5.65;100.00
32761;BME280;19126;47.472;7.850;2023-04-10T06:25:38;97040.47;;;6.35;100.00
32761;BME280;19126;47.472;7.850;2023-04-10T06:28:05;97053.78;;;6.91;100.00
32761;BME280;19126;47.472;7.850;2023-04-10T06:30:33;97058.47;;;7.35;98.83
32761;BME280;19126;47.472;7.850;2023-04-10T06:33:02;97061.78;;;7.37;87.33
32761;BME280;19126;47.472;7.850;2023-04-10T06:35:29;97051.91;;;7.59;86.60
32761;BME280;19126;47.472;7.850;2023-04-10T06:37:59;97052.13;;;8.21;92.47
32761;BME280;19126;47.472;7.850;2023-04-10T06:40:26;97051.34;;;8.57;85.90
32761;BME280;19126;47.472;7.850;2023-04-10T06:42:55;97040.88;;;8.57;79.39
32761;BME280;19126;47.472;7.850;2023-04-10T06:45:23;97042.47;;;8.76;77.20
32761;BME280;19126;47.472;7.850;2023-04-10T06:47:51;97041.84;;;9.01;77.18
32761;BME280;19126;47.472;7.850;2023-04-10T06:50:18;97044.22;;;9.12;76.24
32761;BME280;19126;47.472;7.850;2023-04-10T06:52:48;97043.38;;;9.12;74.89
32761;BME280;19126;47.472;7.850;2023-04-10T06:55:17;97040.56;;;9.05;73.18
32761;BME280;19126;47.472;7.850;2023-04-10T06:57:45;97044.66;;;9.60;77.86
32761;BME280;19126;47.472;7.850;2023-04-10T07:00:13;97053.84;;;9.64;72.69
32761;BME280;19126;47.472;7.850;2023-04-10T07:02:41;97049.84;;;9.52;71.04
32761;BME280;19126;47.472;7.850;2023-04-10T07:05:08;97048.56;;;9.56;69.87
32761;BME280;19126;47.472;7.850;2023-04-10T07:07:36;97035.94;;;9.60;70.62
32761;BME280;19126;47.472;7.850;2023-04-10T07:10:04;97031.31;;;9.96;72.25
32761;BME280;19126;47.472;7.850;2023-04-10T07:12:33;97035.00;;;10.29;72.41
32761;BME280;19126;47.472;7.850;2023-04-10T07:15:01;97039.31;;;10.54;69.47
32761;BME280;19126;47.472;7.850;2023-04-10T07:17:28;97040.13;;;10.47;66.71
32761;BME280;19126;47.472;7.850;2023-04-10T07:19:56;97037.56;;;10.04;65.41
32761;BME280;19126;47.472;7.850;2023-04-10T07:22:23;97043.63;;;10.04;67.01
32761;BME280;19126;47.472;7.850;2023-04-10T07:24:51;97038.66;;;10.44;72.02
32761;BME280;19126;47.472;7.850;2023-04-10T07:27:18;97042.25;;;11.01;70.49
32761;BME280;19126;47.472;7.850;2023-04-10T07:29:48;97042.25;;;10.84;66.17
32761;BME280;19126;47.472;7.850;2023-04-10T07:32:15;97038.31;;;10.89;66.32
32761;BME280;19126;47.472;7.850;2023-04-10T07:34:42;97035.75;;;11.45;68.32
32761;BME280;19126;47.472;7.850;2023-04-10T07:37:10;97029.41;;;11.14;64.30
32761;BME280;19126;47.472;7.850;2023-04-10T07:39:37;97035.66;;;11.05;63.86
32761;BME280;19126;47.472;7.850;2023-04-10T07:42:05;97034.75;;;11.46;67.64
32761;BME280;19126;47.472;7.850;2023-04-10T07:44:32;97026.44;;;11.26;65.08
32761;BME280;19126;47.472;7.850;2023-04-10T07:47:02;97031.66;;;11.34;64.93
32761;BME280;19126;47.472;7.850;2023-04-10T07:49:29;97042.25;;;11.66;65.40
32761;BME280;19126;47.472;7.850;2023-04-10T07:51:57;97041.25;;;11.67;65.33
32761;BME280;19126;47.472;7.850;2023-04-10T07:54:25;97049.59;;;11.31;64.65
32761;BME280;19126;47.472;7.850;2023-04-10T07:56:52;97035.94;;;11.35;63.85
32761;BME280;19126;47.472;7.850;2023-04-10T07:59:20;97038.34;;;11.53;65.33
32761;BME280;19126;47.472;7.850;2023-04-10T08:01:47;97040.00;;;11.54;63.94
32761;BME280;19126;47.472;7.850;2023-04-10T08:04:16;97038.56;;;11.83;67.39
32761;BME280;19126;47.472;7.850;2023-04-10T08:06:43;97036.78;;;12.15;63.92
32761;BME280;19126;47.472;7.850;2023-04-10T08:09:10;97037.03;;;12.29;62.95
32761;BME280;19126;47.472;7.850;2023-04-10T08:11:38;97034.44;;;12.21;63.36
32761;BME280;19126;47.472;7.850;2023-04-10T08:14:05;97032.09;;;12.26;62.17
32761;BME280;19126;47.472;7.850;2023-04-10T08:16:34;97022.66;;;12.08;62.67
32761;BME280;19126;47.472;7.850;2023-04-10T08:19:03;97032.16;;;12.18;64.25
32761;BME280;19126;47.472;7.850;2023-04-10T08:21:32;97033.47;;;12.45;63.32
32761;BME280;19126;47.472;7.850;2023-04-10T08:24:02;97029.03;;;12.84;64.55
32761;BME280;19126;47.472;7.850;2023-04-10T08:26:29;97024.50;;;12.93;62.54
32761;BME280;19126;47.472;7.850;2023-04-10T08:28:58;97025.72;;;13.20;61.78
32761;BME280;19126;47.472;7.850;2023-04-10T08:31:27;97026.28;;;13.15;60.02
32761;BME280;19126;47.472;7.850;2023-04-10T08:33:55;97021.81;;;13.01;60.17
32761;BME280;19126;47.472;7.850;2023-04-10T08:36:22;97023.66;;;13.30;62.40
32761;BME280;19126;47.472;7.850;2023-04-10T08:38:51;97026.38;;;13.37;64.15
32761;BME280;19126;47.472;7.850;2023-04-10T08:41:19;97038.88;;;13.73;62.81
32761;BME280;19126;47.472;7.850;2023-04-10T08:43:46;97024.78;;;13.51;60.03
32761;BME280;19126;47.472;7.850;2023-04-10T08:46:14;97021.88;;;13.08;59.30
32761;BME280;19126;47.472;7.850;2023-04-10T08:48:46;97014.31;;;13.43;61.86
32761;BME280;19126;47.472;7.850;2023-04-10T08:51:18;97017.38;;;13.31;59.02
32761;BME280;19126;47.472;7.850;2023-04-10T08:53:51;97004.66;;;13.50;61.00
32761;BME280;19126;47.472;7.850;2023-04-10T08:56:20;97012.09;;;13.76;58.88
32761;BME280;19126;47.472;7.850;2023-04-10T08:58:50;97016.91;;;13.88;60.45
32761;BME280;19126;47.472;7.850;2023-04-10T09:01:19;97018.66;;;14.17;59.90
32761;BME280;19126;47.472;7.850;2023-04-10T09:03:47;97010.34;;;14.42;58.95
32761;BME280;19126;47.472;7.850;2023-04-10T09:06:16;97013.00;;;14.64;57.95
32761;BME280;19126;47.472;7.850;2023-04-10T09:08:43;97020.84;;;15.01;57.86
32761;BME280;19126;47.472;7.850;2023-04-10T09:11:12;97016.97;;;15.03;58.16
32761;BME280;19126;47.472;7.850;2023-04-10T09:13:41;97009.06;;;15.38;56.33
32761;BME280;19126;47.472;7.850;2023-04-10T09:16:10;97008.44;;;15.36;56.07
32761;BME280;19126;47.472;7.850;2023-04-10T09:18:44;97006.59;;;15.79;58.62
32761;BME280;19126;47.472;7.850;2023-04-10T09:21:14;97008.38;;;15.65;56.01
32761;BME280;19126;47.472;7.850;2023-04-10T09:23:43;97009.03;;;15.32;57.03
32761;BME280;19126;47.472;7.850;2023-04-10T09:26:26;97004.72;;;15.66;59.95
32761;BME280;19126;47.472;7.850;2023-04-10T09:28:59;97002.44;;;15.56;55.66
32761;BME280;19126;47.472;7.850;2023-04-10T09:31:32;97003.50;;;15.27;55.33
32761;BME280;19126;47.472;7.850;2023-04-10T09:34:14;96997.03;;;15.01;55.54
32761;BME280;19126;47.472;7.850;2023-04-10T09:36:42;96987.72;;;15.05;57.04
32761;BME280;19126;47.472;7.850;2023-04-10T09:39:11;96986.22;;;15.31;57.82
32761;BME280;19126;47.472;7.850;2023-04-10T09:41:50;96976.84;;;15.70;60.21
32761;BME280;19126;47.472;7.850;2023-04-10T09:44:28;96979.13;;;15.87;57.43
32761;BME280;19126;47.472;7.850;2023-04-10T09:46:59;96975.38;;;15.61;57.12
32761;BME280;19126;47.472;7.850;2023-04-10T09:49:44;96980.50;;;15.69;56.71
32761;BME280;19126;47.472;7.850;2023-04-10T09:52:21;96981.16;;;15.85;56.19
32761;BME280;19126;47.472;7.850;2023-04-10T09:54:50;96981.13;;;15.78;55.62
32761;BME280;19126;47.472;7.850;2023-04-10T09:57:21;96975.34;;;16.09;55.34
32761;BME280;19126;47.472;7.850;2023-04-10T09:59:50;96973.97;;;16.40;55.41
32761;BME280;19126;47.472;7.850;2023-04-10T10:02:19;96967.25;;;16.65;55.15
32761;BME280;19126;47.472;7.850;2023-04-10T10:04:48;96962.94;;;16.10;55.24
32761;BME280;19126;47.472;7.850;2023-04-10T10:07:18;96958.88;;;16.28;56.71
32761;BME280;19126;47.472;7.850;2023-04-10T10:09:48;96949.50;;;16.38;54.86
32761;BME280;19126;47.472;7.850;2023-04-10T10:12:21;96952.97;;;16.46;53.70
32761;BME280;19126;47.472;7.850;2023-04-10T10:15:00;96945.63;;;16.48;54.40
32761;BME280;19126;47.472;7.850;2023-04-10T10:17:42;96939.69;;;16.86;57.56
32761;BME280;19126;47.472;7.850;2023-04-10T10:20:12;96938.66;;;16.87;53.09
32761;BME280;19126;47.472;7.850;2023-04-10T10:22:44;96940.09;;;16.83;53.07
32761;BME280;19126;47.472;7.850;2023-04-10T10:25:12;96928.25;;;17.06;53.58
32761;BME280;19126;47.472;7.850;2023-04-10T10:27:41;96925.78;;;17.11;52.42
32761;BME280;19126;47.472;7.850;2023-04-10T10:30:10;96929.00;;;17.33;52.93
32761;BME280;19126;47.472;7.850;2023-04-10T10:32:39;96921.19;;;17.45;53.69
32761;BME280;19126;47.472;7.850;2023-04-10T10:35:08;96922.66;;;17.34;49.88
32761;BME280;19126;47.472;7.850;2023-04-10T10:37:37;96924.03;;;17.50;49.29
32761;BME280;19126;47.472;7.850;2023-04-10T10:40:13;96920.59;;;17.43;49.82
32761;BME280;19126;47.472;7.850;2023-04-10T10:42:56;96920.59;;;17.36;48.41
32761;BME280;19126;47.472;7.850;2023-04-10T10:45:32;96921.69;;;17.22;50.27
32761;BME280;19126;47.472;7.850;2023-04-10T10:48:02;96920.09;;;16.94;49.64
32761;BME280;19126;47.472;7.850;2023-04-10T10:50:51;96912.69;;;17.16;50.57
32761;BME280;19126;47.472;7.850;2023-04-10T10:53:34;96910.03;;;17.30;50.65
32761;BME280;19126;47.472;7.850;2023-04-10T10:56:33;96911.44;;;17.32;49.10
32761;BME280;19126;47.472;7.850;2023-04-10T10:59:03;96909.97;;;17.43;48.20
32761;BME280;19126;47.472;7.850;2023-04-10T11:01:32;96914.03;;;17.46;48.39
32761;BME280;19126;47.472;7.850;2023-04-10T11:03:59;96919.09;;;17.54;47.69
32761;BME280;19126;47.472;7.850;2023-04-10T11:06:50;96911.97;;;17.48;46.72
32761;BME280;19126;47.472;7.850;2023-04-10T11:09:46;96908.53;;;17.40;47.44
32761;BME280;19126;47.472;7.850;2023-04-10T11:12:15;96913.19;;;17.52;46.30
32761;BME280;19126;47.472;7.850;2023-04-10T11:14:56;96904.41;;;17.51;48.08
32761;BME280;19126;47.472;7.850;2023-04-10T11:17:47;96891.69;;;17.60;48.23
32761;BME280;19126;47.472;7.850;2023-04-10T11:20:15;96884.13;;;17.64;48.96
32761;BME280;19126;47.472;7.850;2023-04-10T11:23:09;96887.69;;;17.44;47.93
32761;BME280;19126;47.472;7.850;2023-04-10T11:25:48;96892.81;;;17.39;47.24
32761;BME280;19126;47.472;7.850;2023-04-10T11:28:37;96886.13;;;17.23;48.47
32761;BME280;19126;47.472;7.850;2023-04-10T11:31:18;96879.97;;;17.36;50.40
32761;BME280;19126;47.472;7.850;2023-04-10T11:33:47;96881.78;;;17.42;50.83
32761;BME280;19126;47.472;7.850;2023-04-10T11:36:15;96883.91;;;17.65;48.93
32761;BME280;19126;47.472;7.850;2023-04-10T11:38:54;96890.53;;;17.49;47.85
32761;BME280;19126;47.472;7.850;2023-04-10T11:41:27;96882.00;;;17.79;48.73
32761;BME280;19126;47.472;7.850;2023-04-10T11:43:55;96880.66;;;17.95;49.25
32761;BME280;19126;47.472;7.850;2023-04-10T11:46:25;96877.38;;;18.25;48.81
32761;BME280;19126;47.472;7.850;2023-04-10T11:48:53;96880.59;;;18.09;46.10
32761;BME280;19126;47.472;7.850;2023-04-10T11:51:22;96876.97;;;18.03;46.22
32761;BME280;19126;47.472;7.850;2023-04-10T11:54:05;96864.84;;;18.33;46.63
32761;BME280;19126;47.472;7.850;2023-04-10T11:56:33;96868.00;;;18.48;48.63
32761;BME280;19126;47.472;7.850;2023-04-10T11:59:00;96863.44;;;18.55;46.20
32761;BME280;19126;47.472;7.850;2023-04-10T12:01:33;96867.16;;;18.73;46.61
32761;BME280;19126;47.472;7.850;2023-04-10T12:04:01;96865.19;;;19.06;47.18
32761;BME280;19126;47.472;7.850;2023-04-10T12:06:29;96862.75;;;18.85;45.25
32761;BME280;19126;47.472;7.850;2023-04-10T12:08:57;96865.28;;;18.99;45.18
32761;BME280;19126;47.472;7.850;2023-04-10T12:11:25;96861.19;;;19.33;48.83
32761;BME280;19126;47.472;7.850;2023-04-10T12:13:55;96864.44;;;19.66;48.18
32761;BME280;19126;47.472;7.850;2023-04-10T12:16:23;96859.44;;;19.88;47.85
32761;BME280;19126;47.472;7.850;2023-04-10T12:18:54;96854.72;;;19.90;46.38
32761;BME280;19126;47.472;7.850;2023-04-10T12:21:21;96858.69;;;20.00;45.84
32761;BME280;19126;47.472;7.850;2023-04-10T12:23:49;96847.44;;;19.98;46.62
32761;BME280;19126;47.472;7.850;2023-04-10T12:26:18;96850.09;;;20.10;46.95
32761;BME280;19126;47.472;7.850;2023-04-10T12:28:51;96847.44;;;20.10;45.32
32761;BME280;19126;47.472;7.850;2023-04-10T12:31:26;96837.25;;;20.30;46.79
32761;BME280;19126;47.472;7.850;2023-04-10T12:33:57;96837.59;;;20.46;48.47
32761;BME280;19126;47.472;7.850;2023-04-10T12:36:26;96829.47;;;20.53;45.81
32761;BME280;19126;47.472;7.850;2023-04-10T12:38:55;96820.66;;;20.52;43.08
32761;BME280;19126;47.472;7.850;2023-04-10T12:41:25;96819.13;;;20.09;43.55
32761;BME280;19126;47.472;7.850;2023-04-10T12:44:05;96823.19;;;19.69;43.32
32761;BME280;19126;47.472;7.850;2023-04-10T12:46:33;96815.50;;;19.48;43.70
32761;BME280;19126;47.472;7.850;2023-04-10T12:49:11;96820.91;;;19.72;45.99
32761;BME280;19126;47.472;7.850;2023-04-10T12:51:50;96824.16;;;19.13;44.73
32761;BME280;19126;47.472;7.850;2023-04-10T12:54:28;96816.03;;;19.08;45.40
32761;BME280;19126;47.472;7.850;2023-04-10T12:56:56;96820.66;;;18.75;45.59
32761;BME280;19126;47.472;7.850;2023-04-10T12:59:24;96809.84;;;18.52;45.79
32761;BME280;19126;47.472;7.850;2023-04-10T13:01:51;96816.19;;;18.32;46.08
32761;BME280;19126;47.472;7.850;2023-04-10T13:04:20;96810.78;;;18.39;48.29
32761;BME280;19126;47.472;7.850;2023-04-10T13:06:49;96810.75;;;18.20;46.32
32761;BME280;19126;47.472;7.850;2023-04-10T13:09:17;96813.66;;;18.19;48.35
32761;BME280;19126;47.472;7.850;2023-04-10T13:11:45;96809.91;;;18.45;48.87
32761;BME280;19126;47.472;7.850;2023-04-10T13:14:12;96806.56;;;18.56;47.24
32761;BME280;19126;47.472;7.850;2023-04-10T13:16:39;96807.25;;;18.45;47.33
32761;BME280;19126;47.472;7.850;2023-04-10T13:19:07;96795.53;;;18.53;46.69